createdAt,value
2022-08-22T00:02:23.916Z,498.27
2022-08-22T00:02:49.934Z,454.27
2022-08-22T00:02:54.358Z,403.58
2022-08-22T00:02:56.462Z,442.65
2022-08-22T00:02:58.275Z,384.33
2022-08-22T00:02:59.810Z,397.13
2022-08-22T00:02:59.904Z,403.77
2022-08-22T00:03:01.583Z,334.10
2022-08-22T00:05:10.698Z,474.50
2022-08-22T00:07:58.411Z,488.95
2022-08-22T00:10:51.616Z,467.58
2022-08-22T00:13:45.687Z,531.20
2022-08-22T00:16:29.119Z,484.38
2022-08-22T00:19:16.550Z,515.58
2022-08-22T00:22:13.406Z,533.75
2022-08-22T00:24:46.808Z,491.50
2022-08-22T00:27:21.720Z,498.75
2022-08-22T00:29:58.720Z,489.30
2022-08-22T00:32:42.834Z,512.70
2022-08-22T00:38:07.011Z,505.45
2022-08-22T00:41:04.994Z,527.25
2022-08-22T00:43:50.019Z,500.98
2022-08-22T00:46:27.463Z,498.58
2022-08-22T00:49:23.524Z,490.38
2022-08-22T00:52:16.316Z,517.78
2022-08-22T00:55:20.371Z,517.75
2022-08-22T00:58:22.889Z,509.47
2022-08-22T01:00:56.988Z,468.27
2022-08-22T01:03:44.639Z,512.53
2022-08-22T01:06:48.986Z,523.55
2022-08-22T01:09:33.902Z,520.17
2022-08-22T01:12:28.403Z,504.25
2022-08-22T01:17:59.493Z,500.13
2022-08-22T01:20:47.601Z,497.42
2022-08-22T01:23:26.537Z,495.27
2022-08-22T01:26:11.922Z,516.65
2022-08-22T01:29:16.495Z,500.15
2022-08-22T01:31:58.825Z,520.22
2022-08-22T01:35:09.126Z,498.13
2022-08-22T01:38:02.512Z,499.65
2022-08-22T01:40:53.450Z,503.40
2022-08-22T01:43:58.650Z,513.58
2022-08-22T01:46:47.237Z,540.75
2022-08-22T01:49:29.508Z,513.03
2022-08-22T01:52:05.418Z,498.05
2022-08-22T01:54:55.889Z,546.17
2022-08-22T01:57:24.200Z,496.58
2022-08-22T01:59:55.264Z,524.63
2022-08-22T02:02:40.157Z,526.00
2022-08-22T02:05:37.895Z,511.88
2022-08-22T02:08:44.690Z,524.33
2022-08-22T02:11:28.611Z,517.20
2022-08-22T02:14:21.521Z,494.33
2022-08-22T02:16:55.926Z,530.28
2022-08-22T02:19:38.704Z,548.63
2022-08-22T02:22:22.761Z,495.70
2022-08-22T02:25:10.691Z,501.23
2022-08-22T02:27:53.895Z,485.88
2022-08-22T02:30:42.859Z,488.23
2022-08-22T02:33:21.333Z,500.55
2022-08-22T02:35:58.811Z,530.08
2022-08-22T02:38:39.173Z,546.78
2022-08-22T02:41:35.049Z,521.50
2022-08-22T02:44:20.972Z,496.40
2022-08-22T02:47:09.164Z,525.72
2022-08-22T02:50:18.444Z,485.10
2022-08-22T02:52:57.238Z,499.85
2022-08-22T02:55:54.963Z,500.10
2022-08-22T02:58:59.194Z,520.60
2022-08-22T03:01:29.873Z,524.80
2022-08-22T03:04:18.020Z,530.17
2022-08-22T03:06:59.200Z,536.45
2022-08-22T03:09:33.454Z,528.15
2022-08-22T03:12:28.943Z,531.22
2022-08-22T03:15:06.765Z,513.72
2022-08-22T03:17:40.363Z,514.20
2022-08-22T03:20:21.401Z,528.90
2022-08-22T03:23:00.590Z,507.80
2022-08-22T03:25:38.047Z,522.75
2022-08-22T03:28:22.023Z,523.97
2022-08-22T03:30:59.977Z,513.92
2022-08-22T03:33:31.244Z,534.78
2022-08-22T03:36:09.826Z,507.25
2022-08-22T03:38:36.733Z,534.40
2022-08-22T03:41:19.114Z,524.67
2022-08-22T03:44:32.308Z,533.20
2022-08-22T03:47:28.979Z,551.53
2022-08-22T03:50:34.064Z,526.33
2022-08-22T03:53:15.220Z,553.75
2022-08-22T03:56:13.925Z,572.13
2022-08-22T03:58:54.537Z,546.08
2022-08-22T04:01:59.084Z,542.67
2022-08-22T04:04:48.281Z,532.63
2022-08-22T04:07:31.582Z,545.72
2022-08-22T04:10:22.612Z,515.65
2022-08-22T04:13:27.624Z,526.45
2022-08-22T04:16:14.084Z,534.38
2022-08-22T04:18:52.977Z,549.65
2022-08-22T04:21:24.041Z,555.42
2022-08-22T04:24:12.865Z,535.65
2022-08-22T04:27:08.979Z,546.65
2022-08-22T04:29:42.731Z,564.58
2022-08-22T04:32:27.209Z,525.13
2022-08-22T04:35:06.931Z,529.50
2022-08-22T04:37:46.372Z,530.17
2022-08-22T04:40:28.938Z,509.80
2022-08-22T04:43:10.769Z,529.53
2022-08-22T04:45:54.018Z,545.95
2022-08-22T04:48:33.686Z,522.50
2022-08-22T04:51:30.857Z,539.83
2022-08-22T04:54:25.906Z,520.33
2022-08-22T04:57:21.143Z,527.42
2022-08-22T04:59:49.814Z,513.78
2022-08-22T05:02:24.508Z,499.02
2022-08-22T05:05:04.920Z,522.30
2022-08-22T05:07:49.687Z,480.02
2022-08-22T05:10:41.586Z,476.10
2022-08-22T05:13:13.277Z,478.25
2022-08-22T05:15:45.827Z,459.40
2022-08-22T05:18:29.596Z,479.02
2022-08-22T05:23:35.331Z,453.50
2022-08-22T05:26:06.214Z,455.10
2022-08-22T05:28:40.041Z,413.92
2022-08-22T05:33:50.380Z,413.25
2022-08-22T05:36:25.214Z,411.67
2022-08-22T05:38:57.630Z,387.25
2022-08-22T05:41:28.884Z,347.42
2022-08-22T05:43:56.128Z,365.55
2022-08-22T05:47:02.464Z,343.80
2022-08-22T05:49:58.706Z,302.50
2022-08-22T05:52:56.419Z,299.75
2022-08-22T05:55:23.205Z,271.77
2022-08-22T05:58:02.980Z,268.90
2022-08-22T06:00:37.061Z,231.35
2022-08-22T06:03:36.739Z,218.18
2022-08-22T06:06:13.240Z,172.52
2022-08-22T06:08:44.225Z,134.30
2022-08-22T06:11:52.062Z,141.75
2022-08-22T06:14:43.433Z,136.02
2022-08-22T06:17:15.483Z,130.68
2022-08-22T06:19:47.678Z,119.45
2022-08-22T06:22:18.940Z,131.38
2022-08-22T06:24:47.710Z,131.20
2022-08-22T06:27:17.804Z,116.38
2022-08-22T06:29:50.867Z,118.55
2022-08-22T06:33:00.172Z,113.07
2022-08-22T06:35:55.180Z,106.07
2022-08-22T06:38:26.522Z,99.35
2022-08-22T06:40:54.747Z,102.53
2022-08-22T06:43:24.773Z,109.60
2022-08-22T06:45:53.036Z,91.80
2022-08-22T06:48:23.519Z,84.88
2022-08-22T06:50:56.084Z,79.90
2022-08-22T06:53:37.106Z,70.67
2022-08-22T06:56:07.894Z,70.05
2022-08-22T06:58:42.551Z,53.25
2022-08-22T07:01:16.943Z,49.38
2022-08-22T07:03:47.314Z,39.92
2022-08-22T07:06:17.072Z,40.33
2022-08-22T07:08:45.007Z,45.50
2022-08-22T07:11:29.318Z,42.83
2022-08-22T07:14:11.250Z,37.05
2022-08-22T07:16:49.827Z,34.50
2022-08-22T07:19:48.264Z,31.98
2022-08-22T07:22:16.692Z,33.85
2022-08-22T07:24:51.620Z,41.15
2022-08-22T07:27:40.455Z,35.08
2022-08-22T07:30:14.723Z,38.80
2022-08-22T07:33:18.973Z,25.55
2022-08-22T07:35:53.776Z,44.70
2022-08-22T07:38:43.176Z,40.63
2022-08-22T07:41:21.107Z,38.97
2022-08-22T07:44:16.260Z,40.47
2022-08-22T07:47:18.837Z,32.50
2022-08-22T07:50:04.464Z,38.83
2022-08-22T07:52:40.823Z,36.03
2022-08-22T07:55:26.259Z,38.15
2022-08-22T07:58:04.007Z,33.10
2022-08-22T08:00:32.922Z,33.20
2022-08-22T08:03:05.862Z,36.17
2022-08-22T08:05:37.061Z,30.63
2022-08-22T08:08:21.151Z,36.55
2022-08-22T08:10:52.160Z,35.20
2022-08-22T08:13:31.684Z,34.83
2022-08-22T08:15:59.596Z,32.25
2022-08-22T08:18:32.674Z,28.27
2022-08-22T08:21:21.955Z,33.47
2022-08-22T08:23:49.500Z,30.45
2022-08-22T08:26:24.419Z,30.88
2022-08-22T08:28:54.686Z,31.58
2022-08-22T08:31:38.040Z,34.08
2022-08-22T08:34:22.083Z,31.27
2022-08-22T08:37:03.111Z,31.85
2022-08-22T08:39:41.158Z,31.08
2022-08-22T08:42:55.958Z,33.30
2022-08-22T08:45:41.824Z,29.55
2022-08-22T08:48:40.246Z,24.98
2022-08-22T08:51:14.703Z,27.15
2022-08-22T08:53:53.881Z,32.00
2022-08-22T08:56:47.336Z,31.70
2022-08-22T08:59:44.869Z,34.15
2022-08-22T09:02:45.550Z,38.20
2022-08-22T09:05:48.263Z,36.38
2022-08-22T09:09:13.796Z,36.92
2022-08-22T09:15:11.761Z,39.83
2022-08-22T09:18:27.994Z,35.92
2022-08-22T09:21:31.946Z,38.38
2022-08-22T09:27:08.673Z,42.83
2022-08-22T09:29:54.557Z,44.78
2022-08-22T09:33:00.917Z,42.60
2022-08-22T09:35:57.163Z,38.15
2022-08-22T09:38:38.795Z,37.70
2022-08-22T09:41:14.882Z,45.25
2022-08-22T09:44:07.639Z,41.72
2022-08-22T09:49:41.916Z,33.00
2022-08-22T09:52:31.956Z,34.55
2022-08-22T09:55:07.963Z,36.20
2022-08-22T09:57:59.634Z,41.10
2022-08-22T10:00:40.603Z,39.80
2022-08-22T10:03:27.093Z,42.38
2022-08-22T10:06:17.857Z,42.08
2022-08-22T10:08:53.883Z,46.50
2022-08-22T10:11:23.867Z,52.70
2022-08-22T10:14:04.963Z,43.30
2022-08-22T10:16:58.654Z,52.92
2022-08-22T10:19:28.396Z,53.08
2022-08-22T10:22:30.205Z,45.60
2022-08-22T10:25:07.508Z,47.13
2022-08-22T10:27:48.854Z,53.55
2022-08-22T10:30:30.224Z,41.22
2022-08-22T10:33:13.354Z,46.53
2022-08-22T10:35:43.616Z,56.45
2022-08-22T10:38:35.266Z,44.55
2022-08-22T10:41:41.542Z,36.72
2022-08-22T10:44:40.612Z,39.50
2022-08-22T10:47:21.230Z,50.28
2022-08-22T10:49:56.641Z,45.95
2022-08-22T10:52:32.045Z,37.42
2022-08-22T10:55:09.987Z,41.13
2022-08-22T10:58:16.503Z,38.72
2022-08-22T11:00:54.272Z,43.70
2022-08-22T11:03:39.842Z,39.15
2022-08-22T11:06:18.287Z,27.67
2022-08-22T11:09:03.838Z,26.52
2022-08-22T11:11:45.850Z,36.90
2022-08-22T11:14:26.759Z,32.95
2022-08-22T11:17:23.632Z,30.60
2022-08-22T11:20:21.380Z,36.85
2022-08-22T11:23:16.488Z,25.05
2022-08-22T11:26:33.550Z,32.63
2022-08-22T11:29:34.016Z,32.00
2022-08-22T11:32:26.104Z,31.65
2022-08-22T11:35:20.981Z,32.83
2022-08-22T11:38:11.113Z,32.88
2022-08-22T11:40:45.576Z,31.80
2022-08-22T11:43:34.956Z,37.35
2022-08-22T11:46:33.741Z,36.60
2022-08-22T11:49:25.601Z,40.42
2022-08-22T11:52:13.053Z,43.80
2022-08-22T11:54:54.623Z,38.53
2022-08-22T11:57:36.004Z,38.08
2022-08-22T12:00:13.135Z,51.55
2022-08-22T12:02:47.442Z,49.20
2022-08-22T12:05:24.623Z,56.53
2022-08-22T12:08:21.153Z,60.80
2022-08-22T12:11:09.415Z,57.45
2022-08-22T12:14:06.087Z,71.97
2022-08-22T12:16:47.380Z,70.43
2022-08-22T12:19:32.764Z,54.92
2022-08-22T12:22:33.734Z,50.08
2022-08-22T12:25:11.950Z,55.83
2022-08-22T12:27:58.059Z,64.43
2022-08-22T12:30:54.715Z,72.40
2022-08-22T12:33:30.706Z,80.57
2022-08-22T12:36:30.601Z,87.00
2022-08-22T12:39:16.268Z,108.72
2022-08-22T12:42:01.044Z,106.45
2022-08-22T12:44:36.716Z,118.32
2022-08-22T12:47:58.228Z,115.00
2022-08-22T12:50:50.504Z,99.10
2022-08-22T12:53:49.028Z,101.78
2022-08-22T12:56:33.736Z,99.70
2022-08-22T12:59:15.365Z,95.35
2022-08-22T13:01:47.991Z,101.05
2022-08-22T13:04:33.456Z,100.68
2022-08-22T13:07:17.380Z,104.13
2022-08-22T13:09:54.532Z,83.32
2022-08-22T13:12:33.111Z,103.65
2022-08-22T13:15:10.769Z,103.90
2022-08-22T13:17:37.913Z,114.03
2022-08-22T13:20:22.208Z,120.30
2022-08-22T13:22:49.389Z,126.70
2022-08-22T13:25:25.815Z,144.30
2022-08-22T13:27:59.222Z,122.85
2022-08-22T13:30:37.375Z,122.60
2022-08-22T13:33:10.276Z,142.48
2022-08-22T13:35:52.726Z,143.57
2022-08-22T13:38:46.366Z,148.77
2022-08-22T13:44:13.996Z,151.57
2022-08-22T13:47:10.810Z,165.30
2022-08-22T13:49:49.142Z,153.65
2022-08-22T13:52:32.645Z,151.52
2022-08-22T13:55:22.830Z,136.75
2022-08-22T13:57:57.858Z,131.88
2022-08-22T14:01:02.641Z,153.73
2022-08-22T14:03:39.607Z,146.50
2022-08-22T14:06:37.581Z,153.23
2022-08-22T14:09:51.321Z,156.43
2022-08-22T14:12:33.614Z,135.73
2022-08-22T14:15:30.582Z,139.85
2022-08-22T14:18:30.327Z,141.50
2022-08-22T14:21:26.105Z,123.45
2022-08-22T14:23:58.591Z,135.05
2022-08-22T14:26:33.175Z,133.75
2022-08-22T14:29:18.660Z,114.65
2022-08-22T14:32:12.441Z,125.78
2022-08-22T14:34:42.733Z,97.03
2022-08-22T14:37:22.140Z,97.38
2022-08-22T14:39:53.891Z,108.18
2022-08-22T14:42:29.361Z,104.77
2022-08-22T14:45:06.809Z,108.55
2022-08-22T14:48:14.305Z,115.13
2022-08-22T14:50:45.780Z,108.30
2022-08-22T14:53:22.273Z,106.63
2022-08-22T14:56:27.827Z,125.47
2022-08-22T14:59:02.478Z,112.60
2022-08-22T15:01:32.782Z,116.43
2022-08-22T15:04:06.647Z,120.20
2022-08-22T15:06:36.551Z,136.20
2022-08-22T15:09:11.023Z,143.85
2022-08-22T15:11:42.408Z,141.43
2022-08-22T15:14:21.317Z,144.90
2022-08-22T15:16:56.371Z,153.43
2022-08-22T15:19:35.416Z,156.25
2022-08-22T15:22:08.524Z,159.45
2022-08-22T15:25:06.951Z,162.43
2022-08-22T15:28:05.252Z,158.27
2022-08-22T15:30:34.880Z,140.18
2022-08-22T15:33:09.616Z,150.52
2022-08-22T15:35:39.213Z,148.80
2022-08-22T15:38:32.368Z,155.93
2022-08-22T15:41:22.080Z,139.55
2022-08-22T15:43:53.744Z,188.27
2022-08-22T15:46:23.307Z,168.80
2022-08-22T15:49:01.875Z,158.07
2022-08-22T15:52:05.298Z,173.75
2022-08-22T15:54:55.095Z,181.30
2022-08-22T15:57:38.928Z,172.75
2022-08-22T16:00:32.626Z,179.07
2022-08-22T16:03:25.713Z,202.05
2022-08-22T16:06:00.036Z,199.43
2022-08-22T16:08:47.044Z,189.45
2022-08-22T16:11:29.541Z,193.10
2022-08-22T16:14:34.276Z,199.05
2022-08-22T16:17:27.227Z,183.05
2022-08-22T16:20:09.879Z,179.45
2022-08-22T16:23:01.457Z,182.98
2022-08-22T16:25:46.480Z,192.60
2022-08-22T16:29:03.840Z,171.13
2022-08-22T16:31:30.611Z,177.70
2022-08-22T16:34:20.726Z,201.82
2022-08-22T16:36:47.805Z,181.32
2022-08-22T16:39:23.592Z,194.52
2022-08-22T16:42:15.974Z,191.70
2022-08-22T16:44:48.186Z,215.00
2022-08-22T16:47:29.613Z,222.00
2022-08-22T16:50:02.524Z,239.60
2022-08-22T16:52:30.029Z,254.52
2022-08-22T16:55:03.350Z,253.02
2022-08-22T16:58:10.173Z,254.38
2022-08-22T17:00:58.040Z,258.70
2022-08-22T17:03:39.786Z,244.77
2022-08-22T17:06:37.136Z,254.02
2022-08-22T17:09:28.792Z,261.48
2022-08-22T17:12:16.308Z,263.77
2022-08-22T17:14:58.192Z,251.43
2022-08-22T17:18:01.990Z,270.42
2022-08-22T17:20:49.416Z,284.30
2022-08-22T17:23:38.609Z,298.85
2022-08-22T17:26:29.981Z,326.17
2022-08-22T17:29:21.942Z,303.55
2022-08-22T17:36:04.269Z,312.80
2022-08-22T17:39:10.864Z,302.77
2022-08-22T17:42:03.272Z,325.73
2022-08-22T17:44:45.076Z,329.10
2022-08-22T17:47:17.611Z,349.60
2022-08-22T17:50:10.676Z,334.73
2022-08-22T17:53:00.875Z,338.02
2022-08-22T17:55:33.927Z,346.20
2022-08-22T17:58:43.190Z,368.13
2022-08-22T18:01:14.560Z,335.80
2022-08-22T18:03:50.150Z,343.05
2022-08-22T18:06:23.993Z,358.60
2022-08-22T18:09:17.080Z,361.13
2022-08-22T18:11:56.433Z,341.92
2022-08-22T18:14:35.248Z,379.85
2022-08-22T18:17:21.720Z,376.80
2022-08-22T18:20:36.454Z,386.83
2022-08-22T18:23:35.594Z,356.50
2022-08-22T18:26:33.633Z,376.20
2022-08-22T18:29:23.632Z,371.90
2022-08-22T18:32:08.753Z,396.73
2022-08-22T18:34:47.205Z,414.38
2022-08-22T18:37:46.287Z,412.30
2022-08-22T18:40:28.920Z,405.75
2022-08-22T18:43:13.249Z,415.80
2022-08-22T18:45:46.150Z,393.95
2022-08-22T18:48:49.483Z,410.95
2022-08-22T18:51:38.405Z,427.00
2022-08-22T18:56:51.554Z,414.60
2022-08-22T18:59:36.249Z,399.38
2022-08-22T19:02:14.616Z,430.15
2022-08-22T19:05:12.453Z,408.60
2022-08-22T19:08:03.163Z,427.23
2022-08-22T19:10:50.063Z,413.20
2022-08-22T19:13:44.273Z,416.13
2022-08-22T19:16:45.613Z,413.77
2022-08-22T19:20:09.884Z,422.75
2022-08-22T19:22:37.819Z,426.70
2022-08-22T19:25:27.202Z,419.08
2022-08-22T19:28:06.343Z,470.40
2022-08-22T19:30:42.870Z,433.10
2022-08-22T19:33:34.202Z,425.67
2022-08-22T19:36:09.646Z,402.65
2022-08-22T19:39:04.345Z,419.08
2022-08-22T19:41:52.532Z,407.73
2022-08-22T19:44:19.324Z,439.08
2022-08-22T19:47:18.237Z,388.27
2022-08-22T19:50:05.577Z,390.08
2022-08-22T19:52:57.820Z,407.05
2022-08-22T19:55:36.862Z,421.20
2022-08-22T19:58:33.250Z,420.95
2022-08-22T20:01:28.600Z,432.52
2022-08-22T20:04:04.795Z,417.23
2022-08-22T20:06:57.942Z,416.77
2022-08-22T20:10:08.979Z,374.67
2022-08-22T20:13:01.886Z,403.02
2022-08-22T20:15:31.474Z,416.23
2022-08-22T20:18:47.266Z,424.45
2022-08-22T20:20:59.411Z,426.08
2022-08-22T20:23:31.567Z,448.10
2022-08-22T20:25:59.723Z,409.55
2022-08-22T20:28:40.761Z,459.77
2022-08-22T20:31:19.708Z,433.27
2022-08-22T20:33:51.299Z,418.52
2022-08-22T20:36:27.801Z,441.67
2022-08-22T20:39:01.776Z,422.77
2022-08-22T20:41:36.677Z,434.25
2022-08-22T20:44:13.983Z,444.08
2022-08-22T20:46:44.032Z,426.65
2022-08-22T20:49:26.348Z,432.30
2022-08-22T20:52:06.147Z,444.85
2022-08-22T20:54:42.062Z,437.33
2022-08-22T20:57:18.248Z,421.42
2022-08-22T20:59:57.657Z,428.73
2022-08-22T21:02:41.412Z,415.73
2022-08-22T21:05:18.569Z,443.75
2022-08-22T21:07:48.399Z,450.98
2022-08-22T21:10:38.519Z,442.60
2022-08-22T21:13:12.227Z,444.15
2022-08-22T21:15:46.822Z,430.23
2022-08-22T21:18:28.238Z,445.95
2022-08-22T21:21:05.084Z,465.73
2022-08-22T21:23:40.635Z,483.95
2022-08-22T21:26:19.737Z,454.45
2022-08-22T21:28:49.554Z,469.75
2022-08-22T21:31:21.933Z,476.92
2022-08-22T21:33:51.655Z,461.73
2022-08-22T21:36:22.583Z,452.65
2022-08-22T21:39:00.861Z,458.48
2022-08-22T21:41:49.132Z,449.45
2022-08-22T21:44:25.148Z,490.33
2022-08-22T21:46:52.506Z,449.55
2022-08-22T21:49:24.633Z,475.27
2022-08-22T21:51:51.893Z,454.08
2022-08-22T21:54:25.789Z,472.92
2022-08-22T21:57:13.735Z,453.98
2022-08-22T21:59:51.124Z,479.60
2022-08-22T22:02:31.214Z,479.95
2022-08-22T22:05:00.653Z,442.48
2022-08-22T22:07:29.391Z,492.10
2022-08-22T22:09:56.261Z,475.35
2022-08-22T22:12:23.623Z,439.08
2022-08-22T22:14:50.797Z,483.05
2022-08-22T22:17:19.189Z,462.27
2022-08-22T22:19:47.065Z,457.35
2022-08-22T22:22:13.771Z,466.73
2022-08-22T22:24:40.602Z,487.27
2022-08-22T22:27:08.183Z,462.33
2022-08-22T22:29:36.089Z,491.33
2022-08-22T22:32:03.222Z,478.35
2022-08-22T22:34:30.015Z,454.52
2022-08-22T22:36:57.096Z,486.58
2022-08-22T22:39:24.813Z,494.92
2022-08-22T22:41:51.904Z,477.98
2022-08-22T22:44:18.788Z,500.42
2022-08-22T22:46:49.039Z,475.67
2022-08-22T22:49:15.844Z,476.50
2022-08-22T22:51:42.693Z,475.63
2022-08-22T22:54:11.253Z,492.08
2022-08-22T22:56:38.294Z,487.65
2022-08-22T22:59:13.649Z,479.35
2022-08-22T23:02:21.914Z,492.13
2022-08-22T23:04:55.415Z,514.38
2022-08-22T23:07:24.454Z,522.10
2022-08-22T23:09:56.108Z,497.92
2022-08-22T23:12:25.843Z,516.78
2022-08-22T23:14:53.292Z,480.98
2022-08-22T23:17:20.098Z,492.02
2022-08-22T23:19:47.741Z,478.83
2022-08-22T23:22:14.638Z,495.30
2022-08-22T23:24:41.648Z,471.30
2022-08-22T23:27:09.841Z,485.05
2022-08-22T23:29:40.851Z,517.13
2022-08-22T23:32:09.374Z,539.53
2022-08-22T23:34:44.029Z,490.55
2022-08-22T23:37:12.028Z,512.53
2022-08-22T23:39:39.050Z,506.85
2022-08-22T23:42:07.613Z,515.30
2022-08-22T23:44:37.255Z,483.30
2022-08-22T23:47:05.862Z,471.50
2022-08-22T23:49:33.591Z,509.05
2022-08-22T23:52:00.977Z,481.23
2022-08-22T23:54:27.863Z,503.92
2022-08-22T23:56:57.996Z,505.27
2022-08-22T23:59:30.508Z,485.98
